Kezdőlap
METAR-TAF:

METAR-TAF

Repülőterek :

Tamanrasset, Algéria

földrajzi szélesség: 22-49N, földrajzi hosszúság: 005-28E, magasság: 1377 m

Jelenlegi meteorológiai megfigyelések

A jelentés 16 perccel ezelõtt készült, 06:30 UTC
Észak-északnyugati szél 9 kt
Hőmérséklet 30°C
Páratartalom 9%
Légköri nyomás 1020 hPa
Látótávolság 10 km, vagy több
felhőtlen 1500 m magasságban, és nincs gomolyfelhõ

METAR: DAAT 280630Z 34009KT CAVOK 30/M06 Q1020

Idő: 07:46 (06:46 UTC)

Előrejelzés

A jelentés 1 órával és 46 perccel ezelõtt készült, 05:00 UTC
Az előrejelzés 28-én 06 óra UTC és 29-én 06 óra UTC között érvényes
Észak-északnyugati szél 10 kt
Látótávolság 10 km, vagy több
felhőtlen 1500 m magasságban, és nincs gomolyfelhõ
Valószínűség 40% :
28-én 08 óra UTC és 28-én 12 óra UTC között ideiglenes
Északnyugati szél 15 kt széllökések: 25 kt

TAF: DAAT 280500Z 2806/2906 34010KT CAVOK PROB40 TEMPO 2808/2812 32015G25KT

Meteorológiai megfigyelések és előrejelzések több, mint 4000 repülőtéren (METAR és TAF jelentéseket).

A térképen piros és sárga pontok jelzik az elérhető meteorológiai állomásokat.

Mozgassa az egeret a pont fölött, hogy megjelenjen az állomás neve.

Azután kattintson az időjárási megfigyelések és előrejelzések megtekintéséhez.

A térkép megváltoztatása: kattintson a fekete keresztel jelölt zöld gombra ráközelítéshez, a vonallal jelölt zöld gombra távolításhoz, vagy a zöld nyilakra a szomszédos térképek eléréséhez.


METAR-TAF: